createdAt,value
2019-03-11T00:01:50.225Z,4.40
2019-03-11T00:06:43.281Z,4.50
2019-03-11T00:11:36.400Z,4.50
2019-03-11T00:16:29.887Z,4.60
2019-03-11T00:21:22.968Z,4.70
2019-03-11T00:26:16.048Z,5.00
2019-03-11T00:31:09.163Z,5.10
2019-03-11T00:36:02.262Z,5.10
2019-03-11T00:40:55.383Z,5.10
2019-03-11T00:45:48.425Z,4.70
2019-03-11T00:50:41.534Z,4.40
2019-03-11T00:55:34.639Z,4.40
2019-03-11T01:00:32.237Z,3.90
2019-03-11T01:05:25.313Z,3.60
2019-03-11T01:10:18.420Z,3.40
2019-03-11T01:15:11.574Z,3.40
2019-03-11T01:20:04.972Z,3.30
2019-03-11T01:24:59.063Z,3.10
2019-03-11T01:29:52.127Z,3.10
2019-03-11T01:34:45.279Z,3.00
2019-03-11T01:39:38.415Z,3.00
2019-03-11T01:44:31.530Z,3.20
2019-03-11T01:49:24.607Z,3.30
2019-03-11T01:54:17.672Z,3.40
2019-03-11T01:59:10.756Z,3.30
2019-03-11T02:04:03.860Z,3.60
2019-03-11T02:08:56.934Z,3.80
2019-03-11T02:13:50.008Z,4.00
2019-03-11T02:18:43.096Z,4.20
2019-03-11T02:23:36.261Z,4.30
2019-03-11T02:28:29.346Z,4.40
2019-03-11T02:33:22.461Z,4.50
2019-03-11T02:38:15.686Z,4.50
2019-03-11T02:43:08.813Z,4.60
2019-03-11T02:48:02.000Z,4.50
2019-03-11T02:52:55.117Z,4.50
2019-03-11T02:57:48.250Z,4.40
2019-03-11T03:03:06.951Z,4.60
2019-03-11T03:08:00.034Z,4.60
2019-03-11T03:12:53.116Z,4.60
2019-03-11T03:17:46.233Z,4.70
2019-03-11T03:22:39.312Z,4.70
2019-03-11T03:27:32.436Z,4.60
2019-03-11T03:32:25.504Z,4.70
2019-03-11T03:37:18.612Z,4.70
2019-03-11T03:42:13.583Z,4.70
2019-03-11T03:47:06.781Z,4.70
2019-03-11T03:51:59.890Z,4.70
2019-03-11T03:56:54.301Z,4.60
2019-03-11T04:01:47.593Z,4.50
2019-03-11T04:06:40.694Z,4.50
2019-03-11T04:11:33.767Z,4.50
2019-03-11T04:16:26.870Z,4.60
2019-03-11T04:21:20.485Z,4.60
2019-03-11T04:26:13.725Z,4.60
2019-03-11T04:31:06.829Z,4.60
2019-03-11T04:35:59.900Z,4.80
2019-03-11T04:40:53.010Z,4.80
2019-03-11T04:45:46.139Z,4.70
2019-03-11T04:50:39.526Z,4.80
2019-03-11T04:55:32.628Z,4.90
2019-03-11T05:00:27.633Z,5.10
2019-03-11T05:05:20.715Z,5.10
2019-03-11T05:10:16.124Z,4.70
2019-03-11T05:15:09.372Z,4.50
2019-03-11T05:20:03.133Z,4.20
2019-03-11T05:24:56.215Z,4.00
2019-03-11T05:29:49.262Z,4.00
2019-03-11T05:34:42.604Z,3.90
2019-03-11T05:39:35.744Z,4.00
2019-03-11T05:44:28.786Z,4.20
2019-03-11T05:49:21.883Z,4.20
2019-03-11T05:54:15.030Z,4.30
2019-03-11T05:59:08.189Z,4.30
2019-03-11T06:04:01.302Z,4.40
2019-03-11T06:08:54.438Z,4.60
2019-03-11T06:13:47.544Z,4.50
2019-03-11T06:18:47.514Z,4.40
2019-03-11T06:23:41.599Z,4.40
2019-03-11T06:28:34.690Z,4.10
2019-03-11T06:33:27.740Z,4.00
2019-03-11T06:38:20.842Z,4.10
2019-03-11T06:43:14.009Z,4.20
2019-03-11T06:48:07.107Z,4.00
2019-03-11T06:53:00.227Z,4.00
2019-03-11T06:57:53.776Z,4.10
2019-03-11T07:02:47.050Z,4.20
2019-03-11T07:07:40.192Z,4.20
2019-03-11T07:12:33.271Z,4.20
2019-03-11T07:17:26.387Z,4.10
2019-03-11T07:22:19.479Z,4.10
2019-03-11T07:27:12.564Z,4.10
2019-03-11T07:32:05.702Z,4.10
2019-03-11T07:36:58.785Z,4.30
2019-03-11T07:41:51.916Z,4.80
2019-03-11T07:46:45.726Z,5.10
2019-03-11T07:51:39.098Z,5.70
2019-03-11T07:56:32.227Z,5.80
2019-03-11T08:01:25.384Z,5.90
2019-03-11T08:06:19.173Z,5.60
2019-03-11T08:11:12.344Z,5.90
2019-03-11T08:16:05.478Z,5.90
2019-03-11T08:20:58.594Z,6.00
2019-03-11T08:25:51.714Z,5.60
2019-03-11T08:30:44.816Z,5.80
2019-03-11T08:35:37.908Z,6.30
2019-03-11T08:40:31.382Z,6.50
2019-03-11T08:45:24.487Z,6.10
2019-03-11T08:50:23.759Z,5.60
2019-03-11T08:55:16.876Z,6.50
2019-03-11T09:00:10.452Z,7.20
2019-03-11T09:05:05.304Z,7.70
2019-03-11T09:09:58.534Z,7.50
2019-03-11T09:14:51.601Z,7.30
2019-03-11T09:19:44.695Z,6.40
2019-03-11T09:24:37.782Z,6.00
2019-03-11T09:29:30.879Z,5.80
2019-03-11T09:34:23.952Z,6.00
2019-03-11T09:39:17.041Z,6.30
2019-03-11T09:44:10.194Z,6.70
2019-03-11T09:49:03.303Z,7.00
2019-03-11T09:53:56.361Z,7.00
2019-03-11T09:58:49.463Z,6.90
2019-03-11T10:03:43.002Z,7.10
2019-03-11T10:08:36.099Z,7.30
2019-03-11T10:13:29.162Z,7.20
2019-03-11T10:18:22.248Z,6.90
2019-03-11T10:23:15.357Z,6.80
2019-03-11T10:28:08.568Z,6.60
2019-03-11T10:33:02.115Z,6.60
2019-03-11T10:37:55.221Z,6.70
2019-03-11T10:42:48.389Z,6.90
2019-03-11T10:47:42.754Z,6.90
2019-03-11T10:52:35.878Z,6.80
2019-03-11T10:57:28.967Z,6.80
2019-03-11T11:02:22.579Z,6.20
2019-03-11T11:07:16.346Z,4.90
2019-03-11T11:12:09.440Z,4.30
2019-03-11T11:17:02.535Z,4.30
2019-03-11T11:21:55.626Z,4.60
2019-03-11T11:26:48.692Z,4.60
2019-03-11T11:31:41.812Z,4.90
2019-03-11T11:36:35.291Z,5.30
2019-03-11T11:41:28.621Z,5.50
2019-03-11T11:46:21.715Z,5.80
2019-03-11T11:51:14.824Z,6.30
2019-03-11T11:56:07.945Z,6.60
2019-03-11T12:01:01.032Z,7.20
2019-03-11T12:05:54.091Z,7.50
2019-03-11T12:10:47.192Z,7.70
2019-03-11T12:15:40.264Z,8.10
2019-03-11T12:20:33.544Z,8.20
2019-03-11T12:25:26.756Z,8.40
2019-03-11T12:30:22.341Z,8.70
2019-03-11T12:35:15.555Z,9.10
2019-03-11T12:40:09.761Z,9.30
2019-03-11T12:45:03.391Z,9.70
2019-03-11T12:49:56.570Z,9.80
2019-03-11T12:54:49.693Z,9.90
2019-03-11T12:59:43.903Z,10.10
2019-03-11T13:04:37.600Z,10.60
2019-03-11T13:09:30.918Z,10.70
2019-03-11T13:14:24.217Z,10.70
2019-03-11T13:19:17.410Z,10.80
2019-03-11T13:24:10.656Z,10.70
2019-03-11T13:29:03.997Z,11.00
2019-03-11T13:33:57.203Z,11.10
2019-03-11T13:38:50.425Z,10.90
2019-03-11T13:43:43.612Z,10.50
2019-03-11T13:48:37.002Z,10.40
2019-03-11T13:53:30.480Z,10.20
2019-03-11T13:58:23.675Z,9.80
2019-03-11T14:03:16.866Z,9.90
2019-03-11T14:08:10.522Z,9.80
2019-03-11T14:13:03.687Z,9.70
2019-03-11T14:17:56.907Z,10.10
2019-03-11T14:22:50.065Z,10.60
2019-03-11T14:27:43.336Z,10.50
2019-03-11T14:32:36.556Z,10.10
2019-03-11T14:37:29.746Z,10.00
2019-03-11T14:42:22.968Z,9.90
2019-03-11T14:47:16.042Z,9.90
2019-03-11T14:52:09.161Z,9.80
2019-03-11T14:57:02.457Z,9.50
2019-03-11T15:01:55.663Z,9.40
2019-03-11T15:06:48.721Z,9.30
2019-03-11T15:11:41.857Z,9.30
2019-03-11T15:16:34.977Z,9.40
2019-03-11T15:21:28.190Z,9.70
2019-03-11T15:26:25.172Z,9.90
2019-03-11T15:31:16.689Z,10.00
2019-03-11T15:36:09.975Z,9.60
2019-03-11T15:41:03.186Z,9.40
2019-03-11T15:45:56.355Z,9.30
2019-03-11T15:50:49.550Z,9.40
2019-03-11T15:55:44.692Z,9.30
2019-03-11T16:00:37.871Z,9.20
2019-03-11T16:05:31.098Z,9.20
2019-03-11T16:10:24.315Z,9.10
2019-03-11T16:15:17.942Z,9.00
2019-03-11T16:20:12.729Z,8.90
2019-03-11T16:25:07.444Z,8.90
2019-03-11T16:30:00.723Z,9.20
2019-03-11T16:34:53.960Z,9.10
2019-03-11T16:39:47.141Z,8.80
2019-03-11T16:44:40.365Z,8.40
2019-03-11T16:49:33.464Z,8.20
2019-03-11T16:54:26.957Z,8.20
2019-03-11T16:59:20.127Z,8.20
2019-03-11T17:04:13.404Z,8.10
2019-03-11T17:09:08.393Z,8.00
2019-03-11T17:14:01.495Z,7.90
2019-03-11T17:18:54.592Z,7.80
2019-03-11T17:23:47.662Z,7.70
2019-03-11T17:28:40.771Z,7.60
2019-03-11T17:33:34.312Z,7.50
2019-03-11T17:38:27.390Z,7.60
2019-03-11T17:43:20.463Z,7.60
2019-03-11T17:48:13.589Z,7.60
2019-03-11T17:53:06.674Z,7.50
2019-03-11T17:57:59.790Z,7.40
2019-03-11T18:02:52.989Z,7.40
2019-03-11T18:07:46.128Z,7.40
2019-03-11T18:12:39.242Z,7.40
2019-03-11T18:17:32.355Z,7.40
2019-03-11T18:22:25.479Z,7.40
2019-03-11T18:27:18.558Z,7.20
2019-03-11T18:32:11.813Z,7.30
2019-03-11T18:37:04.957Z,7.20
2019-03-11T18:41:58.289Z,7.20
2019-03-11T18:46:51.496Z,7.30
2019-03-11T18:51:44.664Z,7.30
2019-03-11T18:56:37.789Z,7.20
2019-03-11T19:01:30.903Z,7.20
2019-03-11T19:06:23.954Z,7.10
2019-03-11T19:11:17.145Z,7.10
2019-03-11T19:16:10.311Z,7.00
2019-03-11T19:21:03.743Z,7.00
2019-03-11T19:25:56.838Z,7.10
2019-03-11T19:30:49.913Z,7.00
2019-03-11T19:35:43.033Z,7.10
2019-03-11T19:40:36.106Z,7.00
2019-03-11T19:45:29.241Z,7.00
2019-03-11T19:50:22.454Z,7.10
2019-03-11T19:55:15.693Z,7.00
2019-03-11T20:00:12.501Z,7.10
2019-03-11T20:05:07.095Z,6.90
2019-03-11T20:10:00.380Z,6.90
2019-03-11T20:14:53.554Z,6.70
2019-03-11T20:19:46.688Z,6.60
2019-03-11T20:24:39.865Z,6.60
2019-03-11T20:29:34.071Z,6.60
2019-03-11T20:34:27.581Z,6.60
2019-03-11T20:39:20.788Z,6.60
2019-03-11T20:44:13.901Z,6.60
2019-03-11T20:49:07.001Z,6.60
2019-03-11T20:54:00.091Z,6.60
2019-03-11T20:58:53.281Z,6.50
2019-03-11T21:03:46.375Z,6.30
2019-03-11T21:08:39.516Z,6.00
2019-03-11T21:13:32.735Z,5.80
2019-03-11T21:18:26.808Z,5.60
2019-03-11T21:23:19.966Z,5.50
2019-03-11T21:28:13.211Z,5.30
2019-03-11T21:33:06.490Z,5.20
2019-03-11T21:37:59.730Z,5.00
2019-03-11T21:42:52.883Z,4.90
2019-03-11T21:47:45.984Z,4.80
2019-03-11T21:52:39.157Z,4.80
2019-03-11T21:57:32.239Z,4.70
2019-03-11T22:02:25.415Z,4.70
2019-03-11T22:07:18.502Z,4.60
2019-03-11T22:12:11.620Z,4.40
2019-03-11T22:17:04.845Z,4.20
2019-03-11T22:21:58.465Z,4.10
2019-03-11T22:26:51.985Z,4.00
2019-03-11T22:31:45.719Z,4.00
2019-03-11T22:36:39.322Z,3.90
2019-03-11T22:41:32.430Z,3.80
2019-03-11T22:46:25.617Z,3.80
2019-03-11T22:51:18.729Z,3.90
2019-03-11T22:56:11.852Z,3.90
2019-03-11T23:01:06.142Z,4.00
2019-03-11T23:05:59.245Z,3.90
2019-03-11T23:10:52.655Z,3.90
2019-03-11T23:15:45.864Z,3.80
2019-03-11T23:20:39.398Z,3.70
2019-03-11T23:25:32.522Z,3.60
2019-03-11T23:30:26.160Z,3.50
2019-03-11T23:35:20.567Z,3.40
2019-03-11T23:40:14.035Z,3.40
2019-03-11T23:45:07.729Z,3.30
2019-03-11T23:50:01.086Z,3.20
2019-03-11T23:54:55.173Z,3.10
2019-03-11T23:59:49.222Z,3.00
